createdAt,value
2019-01-09T00:01:23.592Z,1.57
2019-01-09T00:03:53.508Z,1.50
2019-01-09T00:06:23.117Z,0.70
2019-01-09T00:08:52.537Z,1.10
2019-01-09T00:11:22.831Z,1.30
2019-01-09T00:13:52.523Z,0.87
2019-01-09T00:16:22.266Z,1.77
2019-01-09T00:18:51.504Z,1.67
2019-01-09T00:21:21.165Z,0.90
2019-01-09T00:23:51.109Z,1.40
2019-01-09T00:26:20.702Z,0.73
2019-01-09T00:28:50.227Z,1.53
2019-01-09T00:31:19.586Z,1.45
2019-01-09T00:33:48.697Z,1.30
2019-01-09T00:36:17.862Z,1.57
2019-01-09T00:38:47.710Z,1.83
2019-01-09T00:41:17.089Z,1.43
2019-01-09T00:43:46.769Z,1.00
2019-01-09T00:46:15.964Z,1.30
2019-01-09T00:48:45.330Z,1.07
2019-01-09T00:51:14.530Z,1.30
2019-01-09T00:53:43.993Z,1.20
2019-01-09T00:56:13.430Z,1.13
2019-01-09T00:58:43.512Z,0.90
2019-01-09T01:01:12.841Z,1.67
2019-01-09T01:04:01.300Z,0.80
2019-01-09T01:06:49.648Z,1.10
2019-01-09T01:09:39.806Z,1.50
2019-01-09T01:12:49.418Z,0.70
2019-01-09T01:15:44.427Z,1.50
2019-01-09T01:18:31.462Z,0.70
2019-01-09T01:21:15.709Z,0.63
2019-01-09T01:24:15.061Z,0.70
2019-01-09T01:26:47.334Z,0.50
2019-01-09T01:29:41.126Z,0.70
2019-01-09T01:32:27.733Z,1.63
2019-01-09T01:35:12.257Z,1.07
2019-01-09T01:38:19.124Z,1.10
2019-01-09T01:41:30.289Z,1.00
2019-01-09T01:44:22.526Z,0.70
2019-01-09T01:47:13.852Z,0.93
2019-01-09T01:50:04.293Z,1.13
2019-01-09T01:52:50.614Z,0.53
2019-01-09T01:56:06.320Z,0.60
2019-01-09T01:58:47.649Z,0.43
2019-01-09T02:01:54.594Z,0.97
2019-01-09T02:05:15.097Z,1.20
2019-01-09T02:08:03.143Z,0.70
2019-01-09T02:11:22.852Z,0.90
2019-01-09T02:14:05.079Z,0.70
2019-01-09T02:16:40.167Z,0.80
2019-01-09T02:19:17.829Z,0.60
2019-01-09T02:22:29.730Z,0.73
2019-01-09T02:25:32.153Z,1.00
2019-01-09T02:28:06.143Z,0.90
2019-01-09T02:30:38.648Z,1.00
2019-01-09T02:33:07.736Z,0.73
2019-01-09T02:35:37.272Z,1.00
2019-01-09T02:38:06.451Z,0.97
2019-01-09T02:40:35.567Z,0.67
2019-01-09T02:43:05.361Z,0.90
2019-01-09T02:45:34.549Z,0.93
2019-01-09T02:48:03.636Z,0.70
2019-01-09T02:50:33.160Z,0.80
2019-01-09T02:53:02.381Z,0.60
2019-01-09T02:55:31.735Z,0.60
2019-01-09T02:58:01.413Z,0.50
2019-01-09T03:00:30.596Z,0.50
2019-01-09T03:03:00.120Z,0.37
2019-01-09T03:05:29.740Z,0.50
2019-01-09T03:07:59.663Z,0.53
2019-01-09T03:10:28.860Z,0.40
2019-01-09T03:12:57.956Z,0.50
2019-01-09T03:15:27.293Z,0.73
2019-01-09T03:17:56.387Z,1.90
2019-01-09T03:20:25.495Z,3.47
2019-01-09T03:22:54.652Z,4.90
2019-01-09T03:25:24.076Z,5.20
2019-01-09T03:27:53.663Z,8.93
2019-01-09T03:30:22.866Z,9.13
2019-01-09T03:32:52.469Z,11.10
2019-01-09T03:35:22.602Z,30.97
2019-01-09T03:37:52.275Z,11.07
2019-01-09T03:40:22.311Z,10.00
2019-01-09T03:42:51.994Z,9.90
2019-01-09T03:45:21.443Z,9.65
2019-01-09T03:47:51.053Z,8.70
2019-01-09T03:50:21.124Z,8.85
2019-01-09T03:52:50.298Z,9.80
2019-01-09T03:55:19.424Z,10.63
2019-01-09T03:57:48.941Z,11.30
2019-01-09T04:00:18.571Z,12.63
2019-01-09T04:02:47.764Z,12.63
2019-01-09T04:05:16.883Z,13.50
2019-01-09T04:07:45.992Z,14.40
2019-01-09T04:10:15.427Z,21.63
2019-01-09T04:12:44.955Z,21.53
2019-01-09T04:15:14.169Z,24.18
2019-01-09T04:17:44.655Z,21.37
2019-01-09T04:20:13.859Z,16.53
2019-01-09T04:22:44.380Z,19.47
2019-01-09T04:25:18.080Z,18.90
2019-01-09T04:27:47.287Z,20.35
2019-01-09T04:30:16.410Z,13.40
2019-01-09T04:32:45.935Z,16.83
2019-01-09T04:35:15.146Z,13.87
2019-01-09T04:37:44.478Z,9.23
2019-01-09T04:40:14.031Z,15.60
2019-01-09T04:42:43.224Z,9.00
2019-01-09T04:45:12.335Z,12.63
2019-01-09T04:47:41.436Z,11.70
2019-01-09T04:50:10.591Z,9.93
2019-01-09T04:52:39.856Z,9.70
2019-01-09T04:55:08.988Z,12.23
2019-01-09T04:57:38.078Z,13.47
2019-01-09T05:00:07.396Z,13.83
2019-01-09T05:02:36.501Z,14.97
2019-01-09T05:05:05.693Z,13.20
2019-01-09T05:07:34.840Z,14.50
2019-01-09T05:10:04.635Z,15.07
2019-01-09T05:12:34.163Z,15.10
2019-01-09T05:15:03.300Z,15.53
2019-01-09T05:17:33.437Z,15.37
2019-01-09T05:20:02.678Z,13.23
2019-01-09T05:22:32.025Z,14.47
2019-01-09T05:25:01.175Z,14.27
2019-01-09T05:27:30.276Z,15.37
2019-01-09T05:29:59.385Z,13.63
2019-01-09T05:32:28.926Z,14.30
2019-01-09T05:34:58.433Z,13.63
2019-01-09T05:37:27.572Z,11.27
2019-01-09T05:39:57.116Z,11.30
2019-01-09T05:42:26.312Z,11.15
2019-01-09T05:44:57.654Z,14.93
2019-01-09T05:47:26.327Z,16.80
2019-01-09T05:49:55.755Z,10.60
2019-01-09T05:52:25.184Z,14.40
2019-01-09T05:54:54.314Z,19.43
2019-01-09T05:57:23.516Z,24.37
2019-01-09T05:59:52.676Z,17.02
2019-01-09T06:02:22.619Z,19.90
2019-01-09T06:04:51.823Z,24.40
2019-01-09T06:07:20.932Z,20.47
2019-01-09T06:09:50.071Z,21.90
2019-01-09T06:12:19.189Z,24.27
2019-01-09T06:14:48.300Z,26.93
2019-01-09T06:17:17.420Z,28.80
2019-01-09T06:19:46.519Z,25.40
2019-01-09T06:22:16.051Z,26.40
2019-01-09T06:24:45.251Z,30.33
2019-01-09T06:27:14.365Z,24.55
2019-01-09T06:29:44.224Z,24.33
2019-01-09T06:32:13.748Z,30.17
2019-01-09T06:34:42.891Z,23.30
2019-01-09T06:37:12.428Z,23.03
2019-01-09T06:39:42.344Z,24.70
2019-01-09T06:42:12.040Z,22.37
2019-01-09T06:44:41.667Z,44.37
2019-01-09T06:47:10.908Z,26.37
2019-01-09T06:49:40.687Z,26.47
2019-01-09T06:52:09.902Z,30.93
2019-01-09T06:54:39.024Z,38.70
2019-01-09T06:57:08.471Z,26.33
2019-01-09T06:59:38.495Z,25.30
2019-01-09T07:02:08.795Z,29.50
2019-01-09T07:04:38.414Z,32.60
2019-01-09T07:07:08.132Z,29.85
2019-01-09T07:09:37.323Z,28.43
2019-01-09T07:12:06.778Z,25.97
2019-01-09T07:14:36.318Z,28.70
2019-01-09T07:17:05.519Z,25.87
2019-01-09T07:19:34.782Z,26.40
2019-01-09T07:22:04.440Z,25.37
2019-01-09T07:24:33.623Z,26.23
2019-01-09T07:27:02.732Z,26.80
2019-01-09T07:29:31.818Z,26.13
2019-01-09T07:32:00.943Z,29.80
2019-01-09T07:34:30.467Z,29.77
2019-01-09T07:37:00.872Z,26.40
2019-01-09T07:39:30.063Z,24.50
2019-01-09T07:41:59.620Z,32.17
2019-01-09T07:44:29.539Z,25.13
2019-01-09T07:46:58.752Z,25.90
2019-01-09T07:49:27.891Z,26.87
2019-01-09T07:51:57.681Z,29.87
2019-01-09T07:54:26.867Z,28.90
2019-01-09T07:56:55.979Z,36.20
2019-01-09T07:59:25.096Z,35.63
2019-01-09T08:01:54.211Z,26.43
2019-01-09T08:04:23.585Z,31.90
2019-01-09T08:06:53.214Z,31.80
2019-01-09T08:09:22.399Z,33.67
2019-01-09T08:11:51.953Z,37.27
2019-01-09T08:14:22.059Z,30.30
2019-01-09T08:16:51.604Z,33.63
2019-01-09T08:19:20.799Z,32.10
2019-01-09T08:21:50.276Z,34.93
2019-01-09T08:24:19.371Z,34.10
2019-01-09T08:26:49.313Z,37.10
2019-01-09T08:29:18.496Z,35.83
2019-01-09T08:31:47.658Z,37.40
2019-01-09T08:34:16.787Z,37.43
2019-01-09T08:36:45.918Z,152.10
2019-01-09T08:39:15.023Z,200.30
2019-01-09T08:41:51.363Z,207.30
2019-01-09T08:44:20.957Z,338.52
2019-01-09T08:46:50.511Z,304.23
2019-01-09T08:52:38.555Z,302.93
2019-01-09T08:55:08.471Z,339.00
2019-01-09T08:57:38.040Z,365.80
2019-01-09T09:00:08.387Z,434.20
2019-01-09T09:02:37.681Z,479.23
2019-01-09T09:05:08.455Z,555.70
2019-01-09T09:07:39.533Z,683.80
2019-01-09T09:10:09.955Z,659.93
2019-01-09T09:12:39.527Z,671.47
2019-01-09T09:15:09.671Z,809.87
2019-01-09T09:17:39.236Z,717.27
2019-01-09T09:20:09.820Z,749.05
2019-01-09T09:22:39.040Z,839.37
2019-01-09T09:25:08.645Z,940.17
2019-01-09T09:27:37.900Z,870.70
2019-01-09T09:30:07.735Z,806.63
2019-01-09T09:32:37.383Z,871.90
2019-01-09T09:35:07.027Z,929.50
2019-01-09T09:37:36.247Z,934.58
2019-01-09T09:40:06.727Z,966.57
2019-01-09T09:42:37.222Z,956.07
2019-01-09T09:45:09.010Z,966.47
2019-01-09T09:47:38.227Z,936.10
2019-01-09T09:50:08.128Z,956.43
2019-01-09T09:52:37.527Z,924.07
2019-01-09T09:55:12.833Z,981.53
2019-01-09T09:57:37.547Z,957.07
2019-01-09T10:00:08.062Z,958.73
2019-01-09T10:02:37.190Z,960.70
2019-01-09T10:05:06.778Z,969.63
2019-01-09T10:09:50.430Z,953.27
2019-01-09T10:12:19.888Z,914.17
2019-01-09T10:14:48.999Z,918.77
2019-01-09T10:17:18.129Z,900.60
2019-01-09T10:19:47.237Z,894.23
2019-01-09T10:22:16.463Z,872.60
2019-01-09T10:24:45.575Z,848.53
2019-01-09T10:27:14.698Z,839.97
2019-01-09T10:29:44.113Z,853.43
2019-01-09T10:32:13.253Z,877.77
2019-01-09T10:34:42.432Z,894.30
2019-01-09T10:37:11.631Z,919.17
2019-01-09T10:39:41.099Z,919.43
2019-01-09T10:42:10.676Z,888.50
2019-01-09T10:44:39.880Z,906.03
2019-01-09T10:47:09.008Z,893.37
2019-01-09T10:49:39.525Z,879.53
2019-01-09T10:52:09.132Z,906.87
2019-01-09T10:54:38.484Z,913.13
2019-01-09T10:57:07.679Z,890.07
2019-01-09T10:59:37.548Z,888.17
2019-01-09T11:02:06.899Z,908.20
2019-01-09T11:04:36.091Z,872.37
2019-01-09T11:07:05.359Z,841.03
2019-01-09T11:09:34.477Z,919.80
2019-01-09T11:12:04.036Z,881.23
2019-01-09T11:14:33.255Z,862.93
2019-01-09T11:17:02.359Z,914.93
2019-01-09T11:19:31.908Z,928.83
2019-01-09T11:22:01.823Z,952.10
2019-01-09T11:24:31.851Z,879.83
2019-01-09T11:27:01.522Z,888.48
2019-01-09T11:29:31.755Z,895.37
2019-01-09T11:32:01.942Z,878.45
2019-01-09T11:34:32.400Z,864.58
2019-01-09T11:37:02.178Z,856.27
2019-01-09T11:39:32.352Z,859.62
2019-01-09T12:24:46.195Z,0.40
2019-01-09T12:27:15.911Z,0.40
2019-01-09T12:29:45.692Z,0.80
2019-01-09T12:32:15.425Z,0.30
2019-01-09T12:34:45.481Z,0.30
2019-01-09T12:37:16.263Z,0.30
2019-01-09T12:39:46.869Z,0.50
2019-01-09T12:42:16.507Z,0.30
2019-01-09T12:44:46.149Z,0.40
2019-01-09T12:47:15.904Z,0.40
2019-01-09T12:49:45.536Z,0.30
2019-01-09T12:52:15.221Z,0.30
2019-01-09T12:54:44.848Z,0.30
2019-01-09T12:57:14.547Z,0.30
2019-01-09T12:59:44.206Z,0.30
2019-01-09T13:02:14.135Z,0.20
2019-01-09T13:04:43.751Z,0.30
2019-01-09T13:07:13.752Z,0.40
2019-01-09T13:09:43.569Z,0.40
2019-01-09T13:12:13.192Z,0.40
2019-01-09T13:14:42.820Z,0.30
2019-01-09T13:17:12.914Z,0.30
2019-01-09T13:19:43.044Z,0.40
2019-01-09T13:22:12.655Z,0.20
2019-01-09T13:24:42.528Z,0.30
2019-01-09T13:27:12.138Z,0.60
2019-01-09T13:29:41.772Z,0.60
2019-01-09T13:32:11.452Z,0.53
2019-01-09T13:34:41.468Z,0.80
2019-01-09T13:37:11.108Z,0.70
2019-01-09T13:39:41.094Z,0.50
2019-01-09T13:42:11.000Z,0.40
2019-01-09T13:44:40.623Z,0.80
2019-01-09T13:47:10.251Z,0.70
2019-01-09T13:49:39.887Z,0.60
2019-01-09T13:52:09.659Z,0.53
2019-01-09T13:54:39.650Z,0.40
2019-01-09T13:57:09.335Z,0.70
2019-01-09T13:59:38.956Z,0.70
2019-01-09T14:02:08.571Z,0.83
2019-01-09T14:04:38.559Z,1.07
2019-01-09T14:07:08.217Z,1.10
2019-01-09T14:09:39.674Z,1.27
2019-01-09T14:12:09.288Z,1.60
2019-01-09T14:14:38.919Z,1.43
2019-01-09T14:17:08.600Z,1.73
2019-01-09T14:19:38.228Z,1.30
2019-01-09T14:22:08.179Z,1.57
2019-01-09T14:24:37.848Z,1.90
2019-01-09T14:27:07.536Z,1.60
2019-01-09T14:29:37.160Z,1.47
2019-01-09T14:32:06.835Z,1.50
2019-01-09T14:34:36.467Z,1.33
2019-01-09T14:37:07.052Z,1.50
2019-01-09T14:39:36.848Z,1.20
2019-01-09T14:42:06.807Z,1.40
2019-01-09T14:44:36.427Z,1.50
2019-01-09T14:47:06.132Z,1.20
2019-01-09T14:49:35.751Z,1.27
2019-01-09T14:52:05.532Z,1.30
2019-01-09T14:54:35.407Z,1.33
2019-01-09T14:57:05.173Z,1.30
2019-01-09T14:59:35.124Z,1.10
2019-01-09T15:02:05.260Z,1.20
2019-01-09T15:04:34.970Z,1.00
2019-01-09T15:07:05.191Z,1.07
2019-01-09T15:09:35.212Z,1.20
2019-01-09T15:12:05.359Z,1.20
2019-01-09T15:14:34.996Z,1.30
2019-01-09T15:17:04.724Z,1.13
2019-01-09T15:19:34.360Z,1.07
2019-01-09T15:22:04.160Z,1.03
2019-01-09T15:24:34.152Z,0.90
2019-01-09T15:27:04.427Z,1.10
2019-01-09T15:29:34.302Z,1.00
2019-01-09T15:32:04.451Z,1.20
2019-01-09T15:34:34.468Z,1.27
2019-01-09T15:37:04.916Z,1.30
2019-01-09T15:39:34.595Z,1.70
2019-01-09T15:42:04.775Z,1.70
2019-01-09T15:44:34.600Z,1.72
2019-01-09T15:47:04.324Z,1.70
2019-01-09T15:49:34.890Z,1.80
2019-01-09T15:52:05.265Z,2.20
2019-01-09T15:54:35.034Z,2.17
2019-01-09T15:57:05.031Z,2.50
2019-01-09T15:59:34.957Z,2.30
2019-01-09T16:02:06.624Z,2.80
2019-01-09T16:04:36.504Z,2.83
2019-01-09T16:07:06.199Z,2.80
2019-01-09T16:09:35.844Z,2.90
2019-01-09T16:12:05.764Z,3.03
2019-01-09T16:14:35.440Z,3.30
2019-01-09T16:17:05.579Z,2.72
2019-01-09T16:19:35.602Z,2.45
2019-01-09T16:22:06.020Z,2.57
2019-01-09T16:24:35.739Z,2.17
2019-01-09T16:27:05.758Z,2.37
2019-01-09T16:29:35.764Z,2.55
2019-01-09T16:32:05.911Z,2.62
2019-01-09T16:34:36.050Z,2.75
2019-01-09T16:37:05.803Z,2.30
2019-01-09T16:39:35.929Z,2.30
2019-01-09T16:42:05.926Z,2.75
2019-01-09T16:44:36.001Z,2.97
2019-01-09T16:47:05.771Z,2.83
2019-01-09T16:49:35.640Z,2.50
2019-01-09T16:52:05.448Z,2.23
2019-01-09T16:54:35.067Z,2.10
2019-01-09T16:57:05.087Z,1.87
2019-01-09T16:59:34.703Z,1.70
2019-01-09T17:02:04.888Z,1.80
2019-01-09T17:04:34.500Z,1.63
2019-01-09T17:07:04.383Z,1.80
2019-01-09T17:09:33.999Z,1.50
2019-01-09T17:12:03.949Z,1.87
2019-01-09T17:14:33.940Z,1.50
2019-01-09T17:17:03.959Z,1.37
2019-01-09T17:19:33.976Z,1.30
2019-01-09T17:22:03.968Z,1.30
2019-01-09T17:24:34.312Z,1.10
2019-01-09T17:27:04.294Z,1.27
2019-01-09T17:29:33.986Z,1.30
2019-01-09T17:32:03.696Z,1.30
2019-01-09T17:34:33.320Z,1.30
2019-01-09T17:37:03.055Z,1.30
2019-01-09T17:39:32.892Z,1.30
2019-01-09T17:42:02.952Z,1.40
2019-01-09T17:44:33.003Z,0.95
2019-01-09T17:47:03.224Z,1.10
2019-01-09T17:49:33.457Z,1.00
2019-01-09T17:52:03.561Z,1.00
2019-01-09T17:54:33.775Z,1.07
2019-01-09T17:57:03.723Z,1.00
2019-01-09T17:59:33.694Z,0.90
2019-01-09T18:02:03.472Z,1.00
2019-01-09T18:04:33.435Z,0.90
2019-01-09T18:07:03.664Z,0.90
2019-01-09T18:09:33.531Z,0.90
2019-01-09T18:12:03.680Z,0.72
2019-01-09T18:14:33.589Z,0.60
2019-01-09T18:17:04.293Z,0.70
2019-01-09T18:19:33.920Z,0.60
2019-01-09T18:22:03.979Z,0.70
2019-01-09T18:24:34.171Z,0.70
2019-01-09T18:27:04.187Z,0.57
2019-01-09T18:29:34.028Z,0.90
2019-01-09T18:32:32.983Z,0.78
2019-01-09T18:35:08.947Z,0.57
2019-01-09T18:38:15.817Z,0.50
2019-01-09T18:41:15.564Z,0.63
2019-01-09T18:44:13.720Z,0.77
2019-01-09T18:47:09.787Z,0.65
2019-01-09T18:50:26.648Z,0.90
2019-01-09T18:53:10.584Z,0.50
2019-01-09T18:55:40.796Z,0.70
2019-01-09T18:58:11.759Z,0.47
2019-01-09T19:00:41.871Z,0.50
2019-01-09T19:03:11.783Z,0.50
2019-01-09T19:05:41.474Z,0.60
2019-01-09T19:08:11.922Z,0.70
2019-01-09T19:10:41.787Z,0.50
2019-01-09T19:13:11.487Z,0.60
2019-01-09T19:15:41.305Z,0.50
2019-01-09T19:18:11.266Z,0.60
2019-01-09T19:20:40.880Z,0.60
2019-01-09T19:23:10.812Z,0.60
2019-01-09T19:25:40.448Z,0.60
2019-01-09T19:28:10.211Z,0.60
2019-01-09T19:30:40.253Z,0.60
2019-01-09T19:33:10.130Z,0.57
2019-01-09T19:35:39.846Z,0.50
2019-01-09T19:38:09.864Z,0.53
2019-01-09T19:40:39.879Z,0.60
2019-01-09T19:43:09.909Z,0.67
2019-01-09T19:45:40.494Z,0.47
2019-01-09T19:48:12.592Z,0.60
2019-01-09T19:50:42.855Z,0.60
2019-01-09T19:53:12.917Z,0.77
2019-01-09T19:55:42.640Z,0.90
2019-01-09T19:58:12.279Z,0.80
2019-01-09T20:00:42.036Z,1.50
2019-01-09T20:03:11.739Z,1.50
2019-01-09T20:05:41.360Z,1.50
2019-01-09T20:08:11.064Z,1.70
2019-01-09T20:10:40.994Z,1.60
2019-01-09T20:13:10.821Z,1.60
2019-01-09T20:15:41.058Z,1.50
2019-01-09T20:18:11.456Z,1.47
2019-01-09T20:20:41.195Z,1.50
2019-01-09T20:23:10.993Z,1.60
2019-01-09T20:25:40.668Z,1.43
2019-01-09T20:28:10.395Z,1.87
2019-01-09T20:30:40.324Z,1.73
2019-01-09T20:33:10.025Z,2.07
2019-01-09T20:35:39.715Z,1.90
2019-01-09T20:38:09.492Z,1.60
2019-01-09T20:40:39.280Z,2.08
2019-01-09T20:43:09.068Z,1.97
2019-01-09T20:45:38.914Z,1.80
2019-01-09T20:48:08.755Z,1.82
2019-01-09T20:50:38.506Z,2.00
2019-01-09T20:53:08.256Z,1.57
2019-01-09T20:55:38.202Z,1.90
2019-01-09T20:58:08.044Z,2.10
2019-01-09T21:00:37.732Z,1.63
2019-01-09T21:03:10.285Z,1.60
2019-01-09T21:05:44.097Z,1.77
2019-01-09T21:08:14.827Z,1.80
2019-01-09T21:10:45.070Z,1.70
2019-01-09T21:13:15.578Z,1.57
2019-01-09T21:15:45.315Z,1.33
2019-01-09T21:18:15.051Z,1.70
2019-01-09T21:20:45.140Z,1.80
2019-01-09T21:23:15.226Z,1.77
2019-01-09T21:25:45.160Z,1.50
2019-01-09T21:28:15.103Z,1.80
2019-01-09T21:30:45.072Z,2.43
2019-01-09T21:33:15.873Z,1.63
2019-01-09T21:35:46.192Z,1.70
2019-01-09T21:38:16.520Z,2.00
2019-01-09T21:40:46.307Z,2.17
2019-01-09T21:43:15.939Z,2.27
2019-01-09T21:45:47.731Z,2.73
2019-01-09T21:48:17.755Z,2.30
2019-01-09T21:50:48.027Z,2.50
2019-01-09T21:53:17.719Z,2.60
2019-01-09T21:55:47.388Z,2.70
2019-01-09T21:58:17.081Z,2.53
2019-01-09T22:00:46.971Z,3.17
2019-01-09T22:03:17.823Z,2.60
2019-01-09T22:05:47.575Z,2.70
2019-01-09T22:08:17.424Z,2.90
2019-01-09T22:10:47.100Z,3.20
2019-01-09T22:13:17.863Z,3.33
2019-01-09T22:15:47.911Z,3.53
2019-01-09T22:18:17.666Z,3.17
2019-01-09T22:20:47.265Z,2.87
2019-01-09T22:23:17.288Z,2.83
2019-01-09T22:25:47.139Z,3.03
2019-01-09T22:28:16.835Z,2.60
2019-01-09T22:30:46.595Z,3.03
2019-01-09T22:33:16.889Z,2.90
2019-01-09T22:35:46.908Z,3.30
2019-01-09T22:38:16.940Z,2.93
2019-01-09T22:40:46.684Z,3.00
2019-01-09T22:43:16.623Z,3.40
2019-01-09T22:45:46.674Z,3.33
2019-01-09T22:48:16.288Z,3.60
2019-01-09T22:50:45.963Z,3.97
2019-01-09T22:53:15.892Z,3.53
2019-01-09T22:55:45.500Z,3.60
2019-01-09T22:58:16.088Z,4.33
2019-01-09T23:00:52.784Z,4.83
2019-01-09T23:03:22.807Z,3.80
2019-01-09T23:05:52.705Z,4.50
2019-01-09T23:08:22.475Z,3.53
2019-01-09T23:10:54.695Z,4.03
2019-01-09T23:13:24.004Z,3.87
2019-01-09T23:15:53.612Z,3.60
2019-01-09T23:18:23.232Z,3.70
2019-01-09T23:20:52.919Z,4.13
2019-01-09T23:23:22.614Z,2.93
2019-01-09T23:25:52.310Z,3.80
2019-01-09T23:28:23.770Z,4.00
2019-01-09T23:30:53.457Z,3.87
2019-01-09T23:33:24.996Z,3.73
2019-01-09T23:35:54.851Z,3.63
2019-01-09T23:38:24.469Z,3.43
2019-01-09T23:40:54.436Z,3.90
2019-01-09T23:43:24.140Z,3.53
2019-01-09T23:45:53.856Z,2.90
2019-01-09T23:48:23.471Z,3.50
2019-01-09T23:50:53.420Z,3.40
2019-01-09T23:53:23.340Z,2.93
2019-01-09T23:55:53.062Z,3.13
2019-01-09T23:58:23.160Z,3.03
